Time;durP1;ratioP1;P1;durP2;ratioP2;P2;SDS_P1;SDS_P2;PMS_P1;PMS_P2;Temp;Humidity;BMP_temperature;BMP_pressure;BME280_temperature;BME280_humidity;BME280_pressure;Samples;Min_cycle;Max_cycle;Signal;HPM_P1;HPM_P2
2023/03/08 00:00:33;;;;;;;18.30;10.70;;;3.40;99.90;;;;;;5112938;28;20051;-50
2023/03/08 00:02:59;;;;;;;21.63;10.45;;;3.40;99.90;;;;;;5112556;28;20012;-48
2023/03/08 00:05:25;;;;;;;20.95;12.00;;;3.40;99.90;;;;;;5113808;27;20027;-50
2023/03/08 00:07:54;;;;;;;22.42;11.68;;;3.40;99.90;;;;;;5111417;28;20036;-46
2023/03/08 00:10:20;;;;;;;18.23;10.95;;;3.40;99.90;;;;;;5112845;28;20031;-46
2023/03/08 00:12:46;;;;;;;22.42;11.55;;;3.40;99.90;;;;;;5112684;28;20042;-46
2023/03/08 00:15:12;;;;;;;20.25;11.23;;;3.40;99.90;;;;;;5119780;27;20015;-48
2023/03/08 00:17:39;;;;;;;21.48;12.15;;;3.40;99.90;;;;;;5113136;28;20031;-43
2023/03/08 00:20:06;;;;;;;20.25;11.65;;;3.40;99.90;;;;;;5112770;28;20023;-43
2023/03/08 00:22:39;;;;;;;20.85;11.93;;;3.40;99.90;;;;;;5112838;28;20479;-45
2023/03/08 00:25:07;;;;;;;21.80;12.27;;;3.40;99.90;;;;;;5120317;27;20502;-47
2023/03/08 00:27:34;;;;;;;22.95;12.18;;;3.40;99.90;;;;;;5112641;28;20117;-49
2023/03/08 00:30:00;;;;;;;21.38;11.80;;;3.40;99.90;;;;;;5112843;27;20038;-44
2023/03/08 00:32:26;;;;;;;21.10;12.55;;;3.40;99.90;;;;;;5112590;28;20471;-47
2023/03/08 00:34:52;;;;;;;20.48;11.77;;;3.40;99.90;;;;;;5121965;27;20043;-46
2023/03/08 00:37:18;;;;;;;22.13;12.10;;;3.40;99.90;;;;;;5109999;27;20023;-43
2023/03/08 00:39:44;;;;;;;22.00;12.50;;;3.40;99.90;;;;;;5112404;28;20122;-43
2023/03/08 00:42:09;;;;;;;24.92;12.85;;;3.40;99.90;;;;;;5112552;28;20063;-43
2023/03/08 00:44:35;;;;;;;22.50;13.25;;;3.40;99.90;;;;;;5113406;27;20413;-44
2023/03/08 00:47:01;;;;;;;25.98;13.02;;;3.40;99.90;;;;;;5112262;28;20114;-46
2023/03/08 00:49:26;;;;;;;20.38;12.15;;;3.40;99.90;;;;;;5112107;28;20065;-50
2023/03/08 00:51:52;;;;;;;22.90;12.88;;;3.40;99.90;;;;;;5112385;28;20031;-43
2023/03/08 00:54:17;;;;;;;24.23;13.00;;;3.40;99.90;;;;;;5114683;27;20015;-43
2023/03/08 00:56:43;;;;;;;25.90;13.35;;;3.40;99.90;;;;;;5112042;28;20046;-43
2023/03/08 00:59:08;;;;;;;21.92;12.88;;;3.40;99.90;;;;;;5112147;28;20016;-43
2023/03/08 01:01:34;;;;;;;21.70;13.10;;;3.50;99.90;;;;;;5111979;28;20049;-43
2023/03/08 01:04:01;;;;;;;25.08;13.50;;;3.50;99.90;;;;;;5115132;27;20029;-43
2023/03/08 01:06:26;;;;;;;27.38;14.10;;;3.40;99.90;;;;;;5112549;27;20032;-43
2023/03/08 01:08:52;;;;;;;21.13;12.23;;;3.50;99.90;;;;;;5111866;28;20051;-49
2023/03/08 01:11:23;;;;;;;21.52;13.10;;;3.40;99.90;;;;;;5111667;28;20028;-43
2023/03/08 01:13:50;;;;;;;26.17;13.10;;;3.40;99.90;;;;;;5113315;27;20024;-45
2023/03/08 01:16:26;;;;;;;27.27;12.80;;;3.40;99.90;;;;;;5115441;27;20472;-42
2023/03/08 01:18:52;;;;;;;27.73;13.82;;;3.40;99.90;;;;;;5111716;28;20031;-43
2023/03/08 01:21:18;;;;;;;25.90;13.38;;;3.50;99.90;;;;;;5111544;28;20016;-43
2023/03/08 01:23:44;;;;;;;29.88;13.98;;;3.40;99.90;;;;;;5112410;27;20037;-43
2023/03/08 01:26:18;;;;;;;26.00;14.25;;;3.40;99.90;;;;;;5118259;27;20054;-42
2023/03/08 01:28:44;;;;;;;28.00;14.13;;;3.40;99.90;;;;;;5098278;28;20372;-50
2023/03/08 01:31:16;;;;;;;24.10;13.35;;;3.40;99.90;;;;;;5111727;28;20049;-49
2023/03/08 01:33:43;;;;;;;26.27;14.43;;;3.40;99.90;;;;;;5111333;27;20460;-50
2023/03/08 01:36:13;;;;;;;25.73;13.80;;;3.40;99.90;;;;;;5111328;27;20383;-47
2023/03/08 01:38:39;;;;;;;29.08;14.70;;;3.50;99.90;;;;;;5105576;28;20053;-54
2023/03/08 01:41:06;;;;;;;26.38;13.30;;;3.50;99.90;;;;;;5111298;28;20100;-46
2023/03/08 01:43:37;;;;;;;27.45;13.85;;;3.40;99.90;;;;;;5111196;28;20106;-46
2023/03/08 01:46:36;;;;;;;27.00;13.43;;;3.50;99.90;;;;;;5110389;27;20172;-52
2023/03/08 01:49:23;;;;;;;23.95;13.10;;;3.50;99.90;;;;;;5110840;28;20035;-51
2023/03/08 01:51:51;;;;;;;24.55;13.27;;;3.40;99.90;;;;;;5110948;28;20015;-45
2023/03/08 01:54:18;;;;;;;26.20;13.38;;;3.40;99.90;;;;;;5121745;27;20392;-44
2023/03/08 01:56:46;;;;;;;21.95;12.35;;;3.40;99.90;;;;;;5117768;27;20031;-45
2023/03/08 01:59:13;;;;;;;24.25;12.80;;;3.40;99.90;;;;;;5112168;27;20495;-43
2023/03/08 02:01:39;;;;;;;24.77;12.93;;;3.30;99.90;;;;;;5110623;28;20464;-43
2023/03/08 02:04:06;;;;;;;26.02;12.38;;;3.30;99.90;;;;;;5111021;28;20024;-51
2023/03/08 02:06:32;;;;;;;24.35;12.98;;;3.30;99.90;;;;;;5111153;28;20030;-45
2023/03/08 02:09:02;;;;;;;27.33;13.32;;;3.30;99.90;;;;;;5114288;28;20027;-45
2023/03/08 02:11:28;;;;;;;23.48;12.73;;;3.30;99.90;;;;;;5110952;28;20023;-46
2023/03/08 02:13:54;;;;;;;26.30;12.35;;;3.20;99.90;;;;;;5109520;28;20110;-50
2023/03/08 02:16:20;;;;;;;24.17;12.60;;;3.20;99.90;;;;;;5109182;28;20019;-48
2023/03/08 02:19:01;;;;;;;25.27;13.57;;;3.20;99.90;;;;;;5110915;28;20051;-43
2023/03/08 02:21:29;;;;;;;27.98;12.45;;;3.20;99.90;;;;;;5110489;28;20063;-45
2023/03/08 02:23:55;;;;;;;25.98;13.48;;;3.20;99.90;;;;;;5110667;28;20061;-43
2023/03/08 02:26:21;;;;;;;25.83;13.60;;;3.10;99.90;;;;;;5121930;28;20076;-48
2023/03/08 02:28:47;;;;;;;25.23;13.48;;;3.10;99.90;;;;;;5110631;28;20103;-46
2023/03/08 02:31:14;;;;;;;29.05;12.85;;;3.10;99.90;;;;;;5108917;28;20056;-45
2023/03/08 02:33:40;;;;;;;25.20;13.35;;;3.00;99.90;;;;;;5090331;28;20048;-46
2023/03/08 02:36:07;;;;;;;24.77;12.70;;;3.00;99.90;;;;;;5099161;28;20034;-43
2023/03/08 02:38:33;;;;;;;26.42;13.82;;;2.90;99.90;;;;;;5110457;28;20487;-43
2023/03/08 02:40:59;;;;;;;27.80;13.75;;;2.90;99.90;;;;;;5098412;28;20039;-48
2023/03/08 02:43:25;;;;;;;27.52;13.43;;;2.90;99.90;;;;;;5108199;28;20023;-43
2023/03/08 02:45:51;;;;;;;28.92;13.85;;;2.90;99.90;;;;;;5118539;28;20078;-47
2023/03/08 02:48:17;;;;;;;25.45;13.00;;;2.90;99.90;;;;;;5114958;27;20078;-46
2023/03/08 02:50:43;;;;;;;21.10;11.80;;;2.90;99.90;;;;;;5101845;28;20028;-43
2023/03/08 02:53:09;;;;;;;28.10;13.45;;;2.90;99.90;;;;;;5114465;28;20055;-43
2023/03/08 02:55:35;;;;;;;25.25;13.05;;;2.90;99.90;;;;;;5114998;27;20383;-43
2023/03/08 02:58:05;;;;;;;25.95;13.13;;;2.80;99.90;;;;;;5114480;28;20038;-49
2023/03/08 03:00:31;;;;;;;21.88;12.18;;;2.90;99.90;;;;;;5114298;28;20077;-47
2023/03/08 03:02:57;;;;;;;27.27;12.93;;;2.80;99.90;;;;;;5114177;28;20034;-45
2023/03/08 03:05:23;;;;;;;26.02;12.80;;;2.80;99.90;;;;;;5113474;27;20031;-47
2023/03/08 03:07:49;;;;;;;30.15;14.38;;;2.80;99.90;;;;;;5108331;27;20039;-45
2023/03/08 03:10:14;;;;;;;24.73;12.05;;;2.80;99.90;;;;;;5114000;28;20024;-47
2023/03/08 03:12:40;;;;;;;24.25;11.68;;;2.80;99.90;;;;;;5099824;28;20379;-48
2023/03/08 03:15:07;;;;;;;22.40;10.80;;;2.80;99.90;;;;;;5114957;27;20027;-50
2023/03/08 03:17:35;;;;;;;21.40;10.82;;;2.80;99.90;;;;;;5115879;27;20103;-43
2023/03/08 03:20:03;;;;;;;21.45;10.73;;;2.70;99.90;;;;;;5114031;28;20038;-45
2023/03/08 03:22:29;;;;;;;20.38;10.38;;;2.60;99.90;;;;;;5113501;28;20035;-47
2023/03/08 03:24:55;;;;;;;23.20;10.20;;;2.60;99.90;;;;;;5112524;28;20092;-45
2023/03/08 03:27:20;;;;;;;21.25;10.60;;;2.50;99.90;;;;;;5118915;27;20028;-47
2023/03/08 03:29:46;;;;;;;19.80;9.93;;;2.50;99.90;;;;;;5113859;28;20028;-43
2023/03/08 03:32:12;;;;;;;21.33;9.80;;;2.40;99.90;;;;;;5113599;28;20059;-43
2023/03/08 03:34:38;;;;;;;19.50;9.90;;;2.40;99.90;;;;;;5113237;28;20067;-47
2023/03/08 03:37:04;;;;;;;17.73;9.20;;;2.40;99.90;;;;;;5119495;27;20035;-47
2023/03/08 03:39:32;;;;;;;21.40;9.40;;;2.40;99.90;;;;;;5111378;28;20055;-43
2023/03/08 03:41:59;;;;;;;19.57;10.00;;;2.40;99.90;;;;;;5101432;28;20487;-45
2023/03/08 03:44:24;;;;;;;19.95;9.02;;;2.40;99.90;;;;;;5113015;28;20739;-47
2023/03/08 03:46:50;;;;;;;21.55;9.43;;;2.30;99.90;;;;;;5121681;27;20105;-46
2023/03/08 03:49:16;;;;;;;16.52;8.82;;;2.30;99.90;;;;;;5113354;28;20490;-43
2023/03/08 03:51:41;;;;;;;17.80;9.07;;;2.30;99.90;;;;;;5113045;28;20028;-50
2023/03/08 03:54:07;;;;;;;16.25;8.65;;;2.20;99.90;;;;;;5113291;28;20018;-50
2023/03/08 03:56:32;;;;;;;16.55;9.02;;;2.20;99.90;;;;;;5123018;27;20436;-47
2023/03/08 03:58:58;;;;;;;19.45;9.13;;;2.20;99.90;;;;;;5112046;27;20034;-46
2023/03/08 04:01:28;;;;;;;16.92;8.55;;;2.10;99.90;;;;;;5112833;28;20077;-46
2023/03/08 04:03:55;;;;;;;17.33;7.72;;;2.20;99.90;;;;;;5112825;28;20020;-45
2023/03/08 04:06:23;;;;;;;19.50;9.05;;;2.00;99.90;;;;;;5122533;27;20027;-42
2023/03/08 04:08:52;;;;;;;14.95;7.63;;;1.90;99.90;;;;;;5113709;27;20050;-42
2023/03/08 04:11:20;;;;;;;17.15;9.00;;;2.00;99.90;;;;;;5111727;28;20016;-42
2023/03/08 04:13:46;;;;;;;13.73;6.68;;;2.00;99.90;;;;;;5111518;28;20047;-42
2023/03/08 04:16:19;;;;;;;18.02;8.50;;;1.90;99.90;;;;;;5120768;27;20058;-43
2023/03/08 04:18:45;;;;;;;15.68;7.75;;;2.00;99.90;;;;;;5115851;27;20534;-46
2023/03/08 04:21:11;;;;;;;13.75;7.13;;;2.00;99.90;;;;;;5112818;28;20027;-42
2023/03/08 04:23:37;;;;;;;16.90;7.95;;;2.00;99.90;;;;;;5111884;27;20032;-43
2023/03/08 04:26:04;;;;;;;14.32;7.45;;;1.90;99.90;;;;;;5129983;27;20023;-44
2023/03/08 04:28:32;;;;;;;13.98;6.50;;;1.90;99.90;;;;;;5113339;27;20039;-43
2023/03/08 04:30:58;;;;;;;13.32;6.68;;;2.00;99.90;;;;;;5113873;27;20024;-42
2023/03/08 04:33:24;;;;;;;13.93;6.43;;;1.90;99.90;;;;;;5112058;28;20418;-48
2023/03/08 04:35:49;;;;;;;11.43;5.93;;;1.90;99.90;;;;;;5113169;27;20062;-42
2023/03/08 04:38:15;;;;;;;14.68;6.95;;;1.90;99.90;;;;;;5115513;27;20016;-42
2023/03/08 04:43:32;;;;;;;11.60;5.85;;;1.90;99.90;;;;;;5099060;28;20448;-42
2023/03/08 04:45:58;;;;;;;13.15;5.90;;;1.80;99.90;;;;;;5117491;27;20015;-42
2023/03/08 04:48:24;;;;;;;11.48;6.10;;;1.80;99.90;;;;;;5112657;27;20514;-48
2023/03/08 04:50:54;;;;;;;9.60;5.40;;;1.80;99.90;;;;;;5112327;28;20020;-47
2023/03/08 04:53:21;;;;;;;9.80;5.57;;;1.70;99.90;;;;;;5112024;28;20027;-43
2023/03/08 04:55:47;;;;;;;11.70;5.63;;;1.70;99.90;;;;;;5115685;27;20123;-47
2023/03/08 04:58:12;;;;;;;10.27;5.07;;;1.70;99.90;;;;;;5116140;27;20414;-45
2023/03/08 05:00:38;;;;;;;11.45;5.45;;;1.70;99.90;;;;;;5112230;28;20023;-45
2023/03/08 05:03:05;;;;;;;9.27;4.85;;;1.70;99.90;;;;;;5115538;27;20059;-51
2023/03/08 05:05:31;;;;;;;9.45;4.25;;;1.70;99.90;;;;;;5096177;28;20036;-48
2023/03/08 05:07:58;;;;;;;9.73;5.32;;;1.70;99.90;;;;;;5111605;28;20036;-45
2023/03/08 05:10:24;;;;;;;9.35;4.70;;;1.70;99.90;;;;;;5111408;28;20103;-41
2023/03/08 05:12:50;;;;;;;9.88;4.22;;;1.70;99.90;;;;;;5116139;27;20057;-42
2023/03/08 05:15:16;;;;;;;8.23;4.25;;;1.70;99.90;;;;;;5111622;28;20055;-42
2023/03/08 05:17:41;;;;;;;7.32;3.78;;;1.70;99.90;;;;;;5111697;28;20620;-42
2023/03/08 05:20:08;;;;;;;6.15;3.60;;;1.70;99.90;;;;;;5111614;28;20020;-44
2023/03/08 05:22:34;;;;;;;7.70;3.70;;;1.70;99.90;;;;;;5117072;27;20135;-42
2023/03/08 05:24:59;;;;;;;7.55;4.03;;;1.70;99.90;;;;;;5111487;28;20493;-41
2023/03/08 05:27:25;;;;;;;7.60;4.18;;;1.70;99.90;;;;;;5111403;28;20114;-46
2023/03/08 05:29:51;;;;;;;7.03;3.65;;;1.70;99.90;;;;;;5111259;28;20020;-49
2023/03/08 05:32:17;;;;;;;5.90;3.42;;;1.70;99.90;;;;;;5117354;27;20051;-50
2023/03/08 05:34:42;;;;;;;7.15;4.05;;;1.70;99.90;;;;;;5111183;28;20086;-42
2023/03/08 05:37:08;;;;;;;7.22;3.83;;;1.70;99.90;;;;;;5111030;27;20028;-43
2023/03/08 05:39:34;;;;;;;6.57;3.85;;;1.70;99.90;;;;;;5108122;28;20467;-46
2023/03/08 05:41:59;;;;;;;7.65;3.65;;;1.70;99.90;;;;;;5105333;27;20088;-45
2023/03/08 05:44:25;;;;;;;6.18;3.55;;;1.70;99.90;;;;;;5115339;27;20064;-46
2023/03/08 05:46:51;;;;;;;5.97;3.17;;;1.70;99.90;;;;;;5111221;28;20388;-43
2023/03/08 05:49:17;;;;;;;6.50;3.15;;;1.70;99.90;;;;;;5111323;28;20026;-47
2023/03/08 05:51:43;;;;;;;6.07;3.20;;;1.70;99.90;;;;;;5114248;28;20023;-42
2023/03/08 05:54:08;;;;;;;6.65;3.55;;;1.70;99.90;;;;;;5121179;27;20028;-51
2023/03/08 05:56:34;;;;;;;7.30;4.05;;;1.70;99.90;;;;;;5109547;28;20364;-48
2023/03/08 05:59:00;;;;;;;7.18;4.13;;;1.60;99.90;;;;;;5110867;28;20066;-49
2023/03/08 06:01:26;;;;;;;6.78;3.70;;;1.70;99.90;;;;;;5111382;28;20103;-47
2023/03/08 06:03:54;;;;;;;6.85;3.70;;;1.60;99.90;;;;;;5110948;28;20532;-44
2023/03/08 06:06:21;;;;;;;6.43;3.90;;;1.60;99.90;;;;;;5111067;28;20028;-45
2023/03/08 06:08:47;;;;;;;8.10;4.60;;;1.60;99.90;;;;;;5110853;28;20039;-50
2023/03/08 06:11:13;;;;;;;7.03;4.13;;;1.60;99.90;;;;;;5110761;28;20387;-46
2023/03/08 06:13:39;;;;;;;6.60;3.90;;;1.60;99.90;;;;;;5112779;28;20019;-50
2023/03/08 06:16:05;;;;;;;7.78;4.47;;;1.60;99.90;;;;;;5110767;28;20020;-47
2023/03/08 06:18:32;;;;;;;9.70;4.28;;;1.60;99.90;;;;;;5110596;28;20019;-48
2023/03/08 06:21:05;;;;;;;7.78;3.90;;;1.60;99.90;;;;;;5110748;28;20019;-51
2023/03/08 06:23:32;;;;;;;7.60;3.67;;;1.60;99.90;;;;;;5116631;28;20042;-50
2023/03/08 06:25:58;;;;;;;6.45;3.70;;;1.60;99.90;;;;;;5115329;28;20024;-43
2023/03/08 06:28:25;;;;;;;8.20;3.95;;;1.60;99.90;;;;;;5115149;28;20039;-44
2023/03/08 06:30:51;;;;;;;6.82;3.80;;;1.60;99.90;;;;;;5114589;28;20085;-45
2023/03/08 06:33:19;;;;;;;6.80;3.85;;;1.70;99.90;;;;;;5119538;27;20122;-44
2023/03/08 06:35:56;;;;;;;6.30;4.00;;;1.70;99.90;;;;;;5116546;27;20044;-48
2023/03/08 06:38:21;;;;;;;7.18;4.35;;;1.70;99.90;;;;;;5117869;27;20024;-44
2023/03/08 06:40:47;;;;;;;7.13;4.45;;;1.70;99.90;;;;;;5111835;27;20093;-44
2023/03/08 06:43:13;;;;;;;7.97;5.05;;;1.70;99.90;;;;;;5125012;27;20031;-53
2023/03/08 06:45:39;;;;;;;9.05;4.78;;;1.80;99.90;;;;;;5122157;27;20031;-51
2023/03/08 06:48:05;;;;;;;9.80;5.65;;;1.80;99.90;;;;;;5123124;27;20061;-49
2023/03/08 06:50:32;;;;;;;8.73;4.78;;;1.80;99.90;;;;;;5122950;27;20444;-52
2023/03/08 06:52:58;;;;;;;8.45;5.15;;;1.80;99.90;;;;;;5126594;27;20505;-51
2023/03/08 06:55:24;;;;;;;8.70;5.60;;;1.80;99.90;;;;;;5115069;27;20032;-47
2023/03/08 06:57:50;;;;;;;9.40;5.70;;;1.80;99.90;;;;;;5114030;28;20024;-49
2023/03/08 07:00:16;;;;;;;9.82;6.40;;;1.90;99.90;;;;;;5114481;28;20049;-50
2023/03/08 07:02:42;;;;;;;9.38;6.00;;;1.80;99.90;;;;;;5119659;27;20447;-44
2023/03/08 07:05:08;;;;;;;10.32;6.25;;;1.80;99.90;;;;;;5119243;27;20033;-49
2023/03/08 07:07:38;;;;;;;10.07;6.00;;;1.80;99.90;;;;;;5117537;27;20135;-52
2023/03/08 07:10:04;;;;;;;10.73;6.00;;;1.80;99.90;;;;;;5114153;27;20113;-51
2023/03/08 07:12:31;;;;;;;11.45;6.30;;;1.80;99.90;;;;;;5124557;27;20031;-48
2023/03/08 07:14:57;;;;;;;9.82;6.13;;;1.80;99.90;;;;;;5113628;28;20031;-44
2023/03/08 07:17:23;;;;;;;9.55;5.80;;;1.90;99.90;;;;;;5113917;28;20027;-45
2023/03/08 07:19:49;;;;;;;10.80;6.32;;;1.90;99.90;;;;;;5113704;27;20023;-45
2023/03/08 07:22:15;;;;;;;11.45;6.82;;;1.90;99.90;;;;;;5119224;27;20114;-48
2023/03/08 07:24:40;;;;;;;9.48;5.97;;;1.90;99.90;;;;;;5112992;27;20464;-44
2023/03/08 07:27:06;;;;;;;11.93;6.28;;;2.00;99.90;;;;;;5113513;28;20395;-46
2023/03/08 07:29:32;;;;;;;13.75;6.13;;;2.00;99.90;;;;;;5113763;28;20051;-44
2023/03/08 07:31:57;;;;;;;9.98;5.55;;;2.10;99.90;;;;;;5114817;27;20039;-44
2023/03/08 07:34:23;;;;;;;10.05;5.78;;;2.10;99.90;;;;;;5118590;27;20040;-46
2023/03/08 07:36:49;;;;;;;8.80;5.75;;;2.20;99.90;;;;;;5113364;28;20111;-44
2023/03/08 07:39:16;;;;;;;8.40;5.45;;;2.10;99.90;;;;;;5112206;28;20483;-44
2023/03/08 07:41:41;;;;;;;11.77;6.57;;;2.20;99.90;;;;;;5106661;27;20084;-45
2023/03/08 07:44:07;;;;;;;9.93;5.93;;;2.20;99.90;;;;;;5116489;27;20012;-43
2023/03/08 07:46:33;;;;;;;9.77;4.95;;;2.30;99.90;;;;;;5112786;27;20442;-44
2023/03/08 07:48:58;;;;;;;8.20;4.32;;;2.30;99.90;;;;;;5113062;28;20403;-44
2023/03/08 07:51:24;;;;;;;8.00;5.15;;;2.30;99.90;;;;;;5113270;28;20475;-44
2023/03/08 07:53:51;;;;;;;9.60;5.90;;;2.30;99.90;;;;;;5114126;27;20379;-44
2023/03/08 07:56:17;;;;;;;8.98;5.50;;;2.30;99.90;;;;;;5112956;28;20027;-44
2023/03/08 07:58:43;;;;;;;9.60;6.00;;;2.30;99.90;;;;;;5111966;28;20047;-45
2023/03/08 08:01:13;;;;;;;9.07;5.13;;;2.30;99.90;;;;;;5112956;27;20052;-47
2023/03/08 08:03:39;;;;;;;9.15;5.15;;;2.30;99.90;;;;;;5119291;27;20015;-48
2023/03/08 08:06:05;;;;;;;11.73;5.78;;;2.30;99.90;;;;;;5116262;27;20032;-45
2023/03/08 08:08:31;;;;;;;9.95;5.55;;;2.30;99.90;;;;;;5113114;27;20096;-44
2023/03/08 08:10:58;;;;;;;11.25;6.20;;;2.40;99.90;;;;;;5111369;28;20020;-43
2023/03/08 08:13:23;;;;;;;9.10;5.45;;;2.30;99.90;;;;;;5113021;27;20100;-43
2023/03/08 08:16:02;;;;;;;11.07;5.80;;;2.40;99.90;;;;;;5111405;27;20055;-48
2023/03/08 08:18:27;;;;;;;9.75;5.18;;;2.40;99.90;;;;;;5115214;27;20300;-50
2023/03/08 08:21:22;;;;;;;9.20;4.88;;;2.40;99.90;;;;;;5120488;27;20012;-46
2023/03/08 08:23:48;;;;;;;9.65;5.07;;;2.50;99.90;;;;;;5102619;27;20036;-48
2023/03/08 08:26:17;;;;;;;9.00;5.35;;;2.50;99.90;;;;;;5112483;27;20059;-47
2023/03/08 08:28:44;;;;;;;8.65;5.18;;;2.60;99.90;;;;;;5112657;27;20067;-48
2023/03/08 08:31:13;;;;;;;8.77;5.13;;;2.60;99.90;;;;;;5112564;28;20027;-45
2023/03/08 08:33:39;;;;;;;10.70;5.28;;;2.70;99.90;;;;;;5121037;27;20434;-45
2023/03/08 08:36:07;;;;;;;8.75;4.85;;;2.70;99.90;;;;;;5123976;27;20035;-46
2023/03/08 08:38:35;;;;;;;7.00;4.70;;;2.70;99.90;;;;;;5114712;27;20543;-53
2023/03/08 08:41:03;;;;;;;9.35;5.05;;;2.70;99.90;;;;;;5110750;28;20057;-45
2023/03/08 08:43:29;;;;;;;8.15;4.90;;;2.70;99.90;;;;;;5118021;27;20033;-51
2023/03/08 08:45:57;;;;;;;9.75;4.75;;;2.80;99.90;;;;;;5110294;28;20115;-45
2023/03/08 08:48:23;;;;;;;8.93;4.93;;;2.80;99.90;;;;;;5101552;27;20496;-45
2023/03/08 08:50:48;;;;;;;7.97;4.78;;;2.80;99.90;;;;;;5103668;28;20040;-45
2023/03/08 08:53:14;;;;;;;9.18;4.38;;;2.80;99.90;;;;;;5111924;27;20070;-47
2023/03/08 08:55:40;;;;;;;8.68;4.57;;;2.70;99.90;;;;;;5108201;27;20044;-47
2023/03/08 08:58:06;;;;;;;7.00;4.22;;;2.80;99.90;;;;;;5108323;28;20035;-49
2023/03/08 09:00:33;;;;;;;6.72;4.10;;;2.80;99.90;;;;;;5104945;28;20071;-51
2023/03/08 09:02:59;;;;;;;7.25;4.93;;;2.80;99.90;;;;;;5113687;27;20044;-48
2023/03/08 09:05:25;;;;;;;7.10;4.38;;;2.80;99.90;;;;;;5110567;27;20106;-46
2023/03/08 09:07:57;;;;;;;7.13;4.05;;;2.80;99.90;;;;;;5107842;28;20139;-48
2023/03/08 09:10:24;;;;;;;7.82;4.90;;;2.80;99.90;;;;;;5110114;28;20077;-50
2023/03/08 09:12:49;;;;;;;6.85;4.18;;;2.80;99.90;;;;;;5117844;27;20115;-48
2023/03/08 09:15:15;;;;;;;7.53;4.50;;;2.90;99.90;;;;;;5114171;27;20115;-46
2023/03/08 09:17:41;;;;;;;6.78;4.53;;;2.80;99.90;;;;;;5110883;27;20031;-46
2023/03/08 09:20:08;;;;;;;6.88;4.75;;;2.80;99.90;;;;;;5110603;28;20011;-47
2023/03/08 09:22:37;;;;;;;7.20;4.65;;;2.80;99.90;;;;;;5114454;27;20054;-44
2023/03/08 09:25:05;;;;;;;8.10;4.38;;;2.80;99.90;;;;;;5095634;28;20476;-45
2023/03/08 09:27:30;;;;;;;8.02;5.05;;;2.80;99.90;;;;;;5102714;27;20139;-48
2023/03/08 09:29:57;;;;;;;7.80;4.97;;;2.90;99.90;;;;;;5093593;28;20454;-48
2023/03/08 09:32:23;;;;;;;7.78;4.78;;;3.00;99.90;;;;;;5102486;27;20088;-48
2023/03/08 09:34:50;;;;;;;6.28;4.68;;;3.00;99.90;;;;;;5096159;28;20059;-44
2023/03/08 09:37:16;;;;;;;7.88;5.18;;;3.00;99.90;;;;;;5092757;28;20062;-48
2023/03/08 09:39:42;;;;;;;9.18;5.75;;;3.00;99.90;;;;;;5090918;28;20016;-52
2023/03/08 09:42:19;;;;;;;9.13;5.65;;;3.00;99.90;;;;;;5094381;27;20023;-46
2023/03/08 09:45:00;;;;;;;10.35;5.40;;;3.00;99.90;;;;;;5095740;28;20012;-45
2023/03/08 09:47:51;;;;;;;9.13;5.35;;;3.10;99.90;;;;;;5094299;28;20044;-45
2023/03/08 09:50:44;;;;;;;11.15;7.32;;;3.10;99.90;;;;;;5095868;28;20472;-45
2023/03/08 09:53:27;;;;;;;11.55;7.35;;;3.00;99.90;;;;;;5095832;27;20112;-46
2023/03/08 09:56:05;;;;;;;7.53;5.70;;;3.00;99.90;;;;;;5089810;28;20016;-50
2023/03/08 09:58:49;;;;;;;9.60;6.50;;;3.00;99.90;;;;;;5088761;28;20028;-47
2023/03/08 10:01:21;;;;;;;8.55;5.95;;;3.10;99.90;;;;;;5092448;28;20036;-46
2023/03/08 10:04:18;;;;;;;7.97;5.78;;;3.10;99.90;;;;;;5095245;28;20033;-45
2023/03/08 10:06:50;;;;;;;9.57;6.10;;;3.20;99.90;;;;;;5092252;28;20085;-45
2023/03/08 10:09:27;;;;;;;9.02;5.70;;;3.30;99.90;;;;;;5090878;28;20036;-45
2023/03/08 10:12:10;;;;;;;15.60;11.38;;;3.30;99.90;;;;;;5091354;28;20020;-49
2023/03/08 10:14:42;;;;;;;7.95;5.57;;;3.30;99.90;;;;;;5094525;28;20042;-46
2023/03/08 10:17:15;;;;;;;8.05;5.40;;;3.30;99.90;;;;;;5094929;28;20030;-47
2023/03/08 10:20:05;;;;;;;8.38;6.32;;;3.20;99.90;;;;;;5091772;28;20032;-44
2023/03/08 10:22:37;;;;;;;8.77;5.60;;;3.30;99.90;;;;;;5093973;28;20028;-48
2023/03/08 10:25:27;;;;;;;8.82;5.90;;;3.30;99.90;;;;;;5092785;28;20012;-45
2023/03/08 10:27:54;;;;;;;;;;;3.30;99.90;;;;;;5090763;28;20081;-48
2023/03/08 10:30:23;;;;;;;12.95;7.45;;;3.50;99.90;;;;;;5091924;28;19994;-48
2023/03/08 10:32:52;;;;;;;9.02;5.60;;;3.50;99.90;;;;;;5092148;28;20077;-45
2023/03/08 10:35:51;;;;;;;13.02;6.00;;;3.60;99.90;;;;;;5092528;28;20078;-48
2023/03/08 10:38:17;;;;;;;19.83;9.15;;;3.50;99.90;;;;;;5091493;28;20105;-45
2023/03/08 10:40:43;;;;;;;10.48;5.75;;;3.70;99.90;;;;;;5090951;28;20051;-47
2023/03/08 10:43:24;;;;;;;11.00;5.72;;;3.80;99.90;;;;;;5096695;28;20490;-45
2023/03/08 10:46:01;;;;;;;8.77;6.03;;;3.80;99.90;;;;;;5091196;28;20476;-45
2023/03/08 10:48:27;;;;;;;7.82;5.47;;;3.90;99.90;;;;;;5092006;28;20040;-45
2023/03/08 10:51:01;;;;;;;9.07;6.30;;;3.90;99.90;;;;;;5090612;28;20020;-46
2023/03/08 10:53:30;;;;;;;12.15;6.78;;;3.80;99.90;;;;;;5095922;28;20495;-44
2023/03/08 10:55:58;;;;;;;9.15;5.70;;;3.70;99.90;;;;;;5090733;28;20095;-48
2023/03/08 10:58:31;;;;;;;9.23;4.97;;;3.70;99.90;;;;;;5090415;28;20039;-46
2023/03/08 11:01:00;;;;;;;7.75;5.00;;;3.60;99.90;;;;;;5090799;28;20062;-51
2023/03/08 11:03:26;;;;;;;9.25;5.40;;;3.70;99.90;;;;;;5099313;28;20031;-50
2023/03/08 11:06:02;;;;;;;9.18;5.30;;;3.70;99.90;;;;;;5090284;28;20076;-46
2023/03/08 11:08:37;;;;;;;9.60;5.82;;;3.80;99.90;;;;;;5092097;28;20042;-45
2023/03/08 11:11:11;;;;;;;8.40;5.30;;;3.70;99.90;;;;;;5092674;28;20028;-48
2023/03/08 11:13:45;;;;;;;8.30;5.05;;;3.70;99.90;;;;;;5096687;27;20024;-46
2023/03/08 11:16:23;;;;;;;9.75;6.13;;;3.80;99.90;;;;;;5091999;28;20425;-44
2023/03/08 11:19:11;;;;;;;9.98;5.28;;;3.80;99.90;;;;;;5097160;28;20786;-45
2023/03/08 11:21:45;;;;;;;11.68;5.63;;;3.80;99.90;;;;;;5095420;27;20024;-44
2023/03/08 11:24:31;;;;;;;9.00;5.38;;;3.80;99.90;;;;;;5108723;27;20024;-45
2023/03/08 11:27:03;;;;;;;9.80;5.45;;;3.70;99.90;;;;;;5094713;28;20024;-45
2023/03/08 11:29:38;;;;;;;11.30;6.32;;;3.80;99.90;;;;;;5093409;28;20486;-45
2023/03/08 11:32:29;;;;;;;10.48;6.25;;;3.80;99.90;;;;;;5097917;28;20015;-44
2023/03/08 11:35:06;;;;;;;12.30;6.65;;;3.70;99.90;;;;;;5108478;28;20051;-49
2023/03/08 11:37:40;;;;;;;11.68;7.65;;;3.70;99.90;;;;;;5113494;28;20030;-46
2023/03/08 11:40:17;;;;;;;10.50;6.60;;;3.70;99.90;;;;;;5106297;28;20017;-46
2023/03/08 11:43:01;;;;;;;11.35;6.20;;;3.70;99.90;;;;;;5110492;27;20046;-45
2023/03/08 11:45:39;;;;;;;11.20;6.68;;;3.80;99.90;;;;;;5113457;27;20559;-45
2023/03/08 11:48:20;;;;;;;12.05;7.03;;;3.80;99.90;;;;;;5113150;28;20113;-46
2023/03/08 11:50:50;;;;;;;12.35;7.00;;;3.80;99.90;;;;;;5113209;27;20020;-45
2023/03/08 11:53:38;;;;;;;12.02;6.70;;;3.80;99.90;;;;;;5115577;27;20028;-52
2023/03/08 11:56:14;;;;;;;13.63;6.55;;;3.90;99.90;;;;;;5113194;27;20026;-50
2023/03/08 11:58:45;;;;;;;22.23;12.10;;;4.00;99.90;;;;;;5112813;28;20016;-47
2023/03/08 12:01:45;;;;;;;17.95;10.23;;;4.10;99.90;;;;;;5112734;27;20475;-50
2023/03/08 12:04:16;;;;;;;18.17;9.38;;;4.10;99.90;;;;;;5089217;28;20024;-47
2023/03/08 12:06:43;;;;;;;11.25;6.38;;;4.10;99.90;;;;;;5118019;27;20023;-49
2023/03/08 12:09:26;;;;;;;15.23;8.32;;;4.10;99.90;;;;;;5112266;27;20080;-44
2023/03/08 12:12:17;;;;;;;11.52;5.82;;;4.20;99.90;;;;;;5098276;27;20031;-46
2023/03/08 12:14:55;;;;;;;14.35;6.10;;;4.10;99.90;;;;;;5094670;27;20103;-48
2023/03/08 12:17:30;;;;;;;11.25;6.28;;;4.20;99.90;;;;;;5092888;27;20052;-50
2023/03/08 12:19:55;;;;;;;13.75;7.55;;;4.20;99.90;;;;;;5089551;28;20024;-47
2023/03/08 12:22:40;;;;;;;11.38;6.32;;;4.20;99.90;;;;;;5097867;27;20024;-50
2023/03/08 12:25:24;;;;;;;28.90;12.80;;;4.20;99.90;;;;;;5094119;27;20032;-50
2023/03/08 12:27:49;;;;;;;13.43;5.95;;;4.20;99.90;;;;;;5092714;28;20507;-47
2023/03/08 12:30:28;;;;;;;9.60;5.78;;;4.20;99.90;;;;;;5093509;27;20035;-45
2023/03/08 12:32:55;;;;;;;11.98;7.07;;;4.30;99.90;;;;;;5091844;27;20081;-47
2023/03/08 12:35:33;;;;;;;12.63;6.13;;;4.30;99.90;;;;;;5092977;28;20036;-49
2023/03/08 12:38:06;;;;;;;11.52;5.88;;;4.20;99.90;;;;;;5095818;28;20024;-46
2023/03/08 12:40:50;;;;;;;9.93;5.50;;;4.20;99.90;;;;;;5092109;28;20032;-49
2023/03/08 12:43:18;;;;;;;9.50;5.05;;;4.30;99.90;;;;;;5095015;28;20024;-51
2023/03/08 12:45:58;;;;;;;9.85;5.40;;;4.20;99.90;;;;;;5096459;28;20035;-45
2023/03/08 12:48:43;;;;;;;11.32;5.68;;;4.20;99.90;;;;;;5100004;28;20080;-43
2023/03/08 12:51:12;;;;;;;10.95;5.60;;;4.20;99.90;;;;;;5090107;28;20031;-42
2023/03/08 12:53:49;;;;;;;8.65;4.63;;;4.20;99.90;;;;;;5095044;27;20672;-46
2023/03/08 12:56:18;;;;;;;9.27;5.13;;;4.20;99.90;;;;;;5093496;27;20553;-41
2023/03/08 12:58:58;;;;;;;7.68;4.65;;;4.20;99.90;;;;;;5094645;27;20028;-46
2023/03/08 13:01:41;;;;;;;8.75;5.07;;;4.20;99.90;;;;;;5093320;28;20075;-45